sensor_id;sensor_type;location;lat;lon;timestamp;pressure;altitude;pressure_sealevel;temperature;humidity
13422;BME280;6782;55.904;13.396;2023-09-19T00:00:39;100122.50;;;18.34;100.00
13422;BME280;6782;55.904;13.396;2023-09-19T00:03:29;100121.88;;;18.31;100.00
13422;BME280;6782;55.904;13.396;2023-09-19T00:06:16;100111.47;;;18.26;100.00
13422;BME280;6782;55.904;13.396;2023-09-19T00:09:04;100119.78;;;18.22;100.00
13422;BME280;6782;55.904;13.396;2023-09-19T00:11:56;100121.59;;;18.21;100.00
13422;BME280;6782;55.904;13.396;2023-09-19T00:14:43;100114.84;;;18.15;100.00
13422;BME280;6782;55.904;13.396;2023-09-19T00:17:30;100119.97;;;18.33;100.00
13422;BME280;6782;55.904;13.396;2023-09-19T00:20:19;100112.75;;;18.21;100.00
13422;BME280;6782;55.904;13.396;2023-09-19T00:23:08;100118.22;;;18.32;100.00
13422;BME280;6782;55.904;13.396;2023-09-19T00:25:58;100117.50;;;18.15;100.00
13422;BME280;6782;55.904;13.396;2023-09-19T00:28:46;100119.72;;;18.09;100.00
13422;BME280;6782;55.904;13.396;2023-09-19T00:31:33;100125.38;;;18.04;100.00
13422;BME280;6782;55.904;13.396;2023-09-19T00:34:20;100125.44;;;18.17;100.00
13422;BME280;6782;55.904;13.396;2023-09-19T00:37:09;100132.41;;;18.05;100.00
13422;BME280;6782;55.904;13.396;2023-09-19T00:39:57;100133.94;;;18.09;100.00
13422;BME280;6782;55.904;13.396;2023-09-19T00:42:45;100132.56;;;18.17;100.00
13422;BME280;6782;55.904;13.396;2023-09-19T00:45:32;100136.09;;;18.17;100.00
13422;BME280;6782;55.904;13.396;2023-09-19T00:48:20;100137.34;;;18.26;100.00
13422;BME280;6782;55.904;13.396;2023-09-19T00:51:08;100148.34;;;18.34;100.00
13422;BME280;6782;55.904;13.396;2023-09-19T00:53:56;100141.69;;;18.27;100.00
13422;BME280;6782;55.904;13.396;2023-09-19T00:56:45;100138.09;;;18.28;100.00
13422;BME280;6782;55.904;13.396;2023-09-19T00:59:34;100138.09;;;18.28;100.00
13422;BME280;6782;55.904;13.396;2023-09-19T01:02:22;100145.13;;;18.29;100.00
13422;BME280;6782;55.904;13.396;2023-09-19T01:05:10;100131.03;;;18.27;100.00
13422;BME280;6782;55.904;13.396;2023-09-19T01:07:58;100125.31;;;18.19;100.00
13422;BME280;6782;55.904;13.396;2023-09-19T01:10:52;100126.84;;;18.23;100.00
13422;BME280;6782;55.904;13.396;2023-09-19T01:13:54;100119.91;;;18.20;100.00
13422;BME280;6782;55.904;13.396;2023-09-19T01:16:50;100113.50;;;18.23;100.00
13422;BME280;6782;55.904;13.396;2023-09-19T01:20:03;100104.75;;;18.21;100.00
13422;BME280;6782;55.904;13.396;2023-09-19T01:23:02;100108.16;;;18.23;100.00
13422;BME280;6782;55.904;13.396;2023-09-19T01:26:11;100082.06;;;18.13;100.00
13422;BME280;6782;55.904;13.396;2023-09-19T01:29:17;100088.31;;;18.27;100.00
13422;BME280;6782;55.904;13.396;2023-09-19T01:32:18;100078.25;;;18.18;100.00
13422;BME280;6782;55.904;13.396;2023-09-19T01:35:07;100077.78;;;18.11;100.00
13422;BME280;6782;55.904;13.396;2023-09-19T01:37:58;100070.81;;;18.08;100.00
13422;BME280;6782;55.904;13.396;2023-09-19T01:40:54;100077.78;;;18.11;100.00
13422;BME280;6782;55.904;13.396;2023-09-19T01:43:45;100072.72;;;18.21;100.00
13422;BME280;6782;55.904;13.396;2023-09-19T01:46:39;100073.13;;;18.14;100.00
13422;BME280;6782;55.904;13.396;2023-09-19T01:49:34;100071.00;;;18.20;100.00
13422;BME280;6782;55.904;13.396;2023-09-19T01:52:28;100065.84;;;18.17;100.00
13422;BME280;6782;55.904;13.396;2023-09-19T01:55:18;100063.00;;;18.20;100.00
13422;BME280;6782;55.904;13.396;2023-09-19T01:58:08;100052.97;;;18.23;100.00
13422;BME280;6782;55.904;13.396;2023-09-19T02:01:00;100049.09;;;18.14;100.00
13422;BME280;6782;55.904;13.396;2023-09-19T02:03:47;100052.81;;;18.12;100.00
13422;BME280;6782;55.904;13.396;2023-09-19T02:06:39;100051.94;;;18.11;100.00
13422;BME280;6782;55.904;13.396;2023-09-19T02:09:26;100036.81;;;18.12;100.00
13422;BME280;6782;55.904;13.396;2023-09-19T02:12:13;100043.84;;;18.13;100.00
13422;BME280;6782;55.904;13.396;2023-09-19T02:15:01;100036.56;;;18.02;100.00
13422;BME280;6782;55.904;13.396;2023-09-19T02:17:49;100052.63;;;18.15;100.00
13422;BME280;6782;55.904;13.396;2023-09-19T02:20:52;99933.78;;;18.09;100.00
13422;BME280;6782;55.904;13.396;2023-09-19T02:23:40;99937.75;;;18.17;100.00
13422;BME280;6782;55.904;13.396;2023-09-19T02:26:27;99941.59;;;18.12;100.00
13422;BME280;6782;55.904;13.396;2023-09-19T02:29:14;99945.22;;;18.11;100.00
13422;BME280;6782;55.904;13.396;2023-09-19T02:32:02;99946.69;;;18.15;100.00
13422;BME280;6782;55.904;13.396;2023-09-19T02:34:49;99948.22;;;18.20;100.00
13422;BME280;6782;55.904;13.396;2023-09-19T02:37:39;99943.28;;;18.13;100.00
13422;BME280;6782;55.904;13.396;2023-09-19T02:40:26;99953.56;;;18.20;100.00
13422;BME280;6782;55.904;13.396;2023-09-19T02:43:14;99945.00;;;18.14;100.00
13422;BME280;6782;55.904;13.396;2023-09-19T02:46:01;99946.69;;;18.15;100.00
13422;BME280;6782;55.904;13.396;2023-09-19T02:48:49;99947.16;;;18.22;100.00
13422;BME280;6782;55.904;13.396;2023-09-19T02:51:36;99946.69;;;18.15;100.00
13422;BME280;6782;55.904;13.396;2023-09-19T02:54:41;99937.53;;;18.20;100.00
13422;BME280;6782;55.904;13.396;2023-09-19T02:57:49;99936.03;;;18.15;100.00
13422;BME280;6782;55.904;13.396;2023-09-19T03:00:41;99943.84;;;18.19;100.00
13422;BME280;6782;55.904;13.396;2023-09-19T03:03:37;99935.06;;;18.17;100.00
13422;BME280;6782;55.904;13.396;2023-09-19T03:06:26;99918.53;;;18.11;100.00
13422;BME280;6782;55.904;13.396;2023-09-19T03:09:16;99921.03;;;18.00;100.00
13422;BME280;6782;55.904;13.396;2023-09-19T03:12:06;99900.72;;;17.85;100.00
13422;BME280;6782;55.904;13.396;2023-09-19T03:14:53;99883.03;;;17.84;100.00
13422;BME280;6782;55.904;13.396;2023-09-19T03:17:43;99881.53;;;17.93;100.00
13422;BME280;6782;55.904;13.396;2023-09-19T03:20:30;99867.03;;;17.84;100.00
13422;BME280;6782;55.904;13.396;2023-09-19T03:23:18;99856.97;;;17.88;100.00
13422;BME280;6782;55.904;13.396;2023-09-19T03:26:05;99848.47;;;17.95;100.00
13422;BME280;6782;55.904;13.396;2023-09-19T03:28:55;99833.09;;;17.86;100.00
13422;BME280;6782;55.904;13.396;2023-09-19T03:31:42;99819.41;;;17.78;100.00
13422;BME280;6782;55.904;13.396;2023-09-19T03:34:29;99789.53;;;17.73;100.00
13422;BME280;6782;55.904;13.396;2023-09-19T03:37:16;99765.66;;;17.72;100.00
13422;BME280;6782;55.904;13.396;2023-09-19T03:40:04;99753.69;;;17.77;100.00
13422;BME280;6782;55.904;13.396;2023-09-19T03:42:53;99751.66;;;17.68;100.00
13422;BME280;6782;55.904;13.396;2023-09-19T03:45:42;99747.28;;;17.67;100.00
13422;BME280;6782;55.904;13.396;2023-09-19T03:48:29;99740.66;;;17.60;100.00
13422;BME280;6782;55.904;13.396;2023-09-19T03:51:16;99739.19;;;17.56;100.00
13422;BME280;6782;55.904;13.396;2023-09-19T03:54:04;99737.47;;;17.55;100.00
13422;BME280;6782;55.904;13.396;2023-09-19T03:56:51;99730.59;;;17.51;100.00
13422;BME280;6782;55.904;13.396;2023-09-19T03:59:39;99746.94;;;17.59;100.00
13422;BME280;6782;55.904;13.396;2023-09-19T04:02:29;99746.59;;;17.51;100.00
13422;BME280;6782;55.904;13.396;2023-09-19T04:05:18;99755.47;;;17.64;100.00
13422;BME280;6782;55.904;13.396;2023-09-19T04:08:06;99747.44;;;17.51;100.00
13422;BME280;6782;55.904;13.396;2023-09-19T04:10:53;99743.59;;;17.43;100.00
13422;BME280;6782;55.904;13.396;2023-09-19T04:13:40;99745.09;;;17.47;100.00
13422;BME280;6782;55.904;13.396;2023-09-19T04:16:27;99749.06;;;17.54;100.00
13422;BME280;6782;55.904;13.396;2023-09-19T04:19:16;99759.84;;;17.52;100.00
13422;BME280;6782;55.904;13.396;2023-09-19T04:22:03;99756.81;;;17.44;100.00
13422;BME280;6782;55.904;13.396;2023-09-19T04:24:50;99762.06;;;17.46;100.00
13422;BME280;6782;55.904;13.396;2023-09-19T04:27:37;99767.72;;;17.54;100.00
13422;BME280;6782;55.904;13.396;2023-09-19T04:30:25;99763.00;;;17.45;100.00
13422;BME280;6782;55.904;13.396;2023-09-19T04:33:13;99770.44;;;17.40;100.00
13422;BME280;6782;55.904;13.396;2023-09-19T04:36:02;99772.41;;;17.50;100.00
13422;BME280;6782;55.904;13.396;2023-09-19T04:38:51;99772.59;;;17.47;100.00
13422;BME280;6782;55.904;13.396;2023-09-19T04:41:39;99772.72;;;17.46;100.00
13422;BME280;6782;55.904;13.396;2023-09-19T04:44:27;99763.19;;;17.42;100.00
13422;BME280;6782;55.904;13.396;2023-09-19T04:47:14;99764.97;;;17.29;100.00
13422;BME280;6782;55.904;13.396;2023-09-19T04:50:02;99765.28;;;17.24;100.00
13422;BME280;6782;55.904;13.396;2023-09-19T04:52:51;99781.25;;;17.24;100.00
13422;BME280;6782;55.904;13.396;2023-09-19T04:55:39;99773.94;;;17.28;100.00
13422;BME280;6782;55.904;13.396;2023-09-19T04:58:26;99770.50;;;17.26;100.00
13422;BME280;6782;55.904;13.396;2023-09-19T05:01:13;99768.25;;;17.20;100.00
13422;BME280;6782;55.904;13.396;2023-09-19T05:04:01;99763.31;;;17.14;100.00
13422;BME280;6782;55.904;13.396;2023-09-19T05:06:50;99765.91;;;17.15;100.00
13422;BME280;6782;55.904;13.396;2023-09-19T05:09:39;99754.78;;;17.09;100.00
13422;BME280;6782;55.904;13.396;2023-09-19T05:12:29;99745.84;;;17.10;100.00
13422;BME280;6782;55.904;13.396;2023-09-19T05:15:16;99734.53;;;17.06;100.00
13422;BME280;6782;55.904;13.396;2023-09-19T05:18:06;99731.75;;;17.08;100.00
13422;BME280;6782;55.904;13.396;2023-09-19T05:20:53;99735.53;;;17.18;100.00
13422;BME280;6782;55.904;13.396;2023-09-19T05:23:40;99717.72;;;17.18;100.00
13422;BME280;6782;55.904;13.396;2023-09-19T05:26:29;99729.03;;;17.22;100.00
13422;BME280;6782;55.904;13.396;2023-09-19T05:29:17;99712.69;;;17.14;100.00
13422;BME280;6782;55.904;13.396;2023-09-19T05:32:04;99713.25;;;17.19;100.00
13422;BME280;6782;55.904;13.396;2023-09-19T05:34:52;99702.38;;;17.22;100.00
13422;BME280;6782;55.904;13.396;2023-09-19T05:37:41;99706.47;;;17.27;100.00
13422;BME280;6782;55.904;13.396;2023-09-19T05:40:29;99683.22;;;17.29;100.00
13422;BME280;6782;55.904;13.396;2023-09-19T05:43:18;99683.22;;;17.42;100.00
13422;BME280;6782;55.904;13.396;2023-09-19T05:46:05;99693.34;;;17.37;100.00
13422;BME280;6782;55.904;13.396;2023-09-19T05:48:53;99683.22;;;17.42;100.00
13422;BME280;6782;55.904;13.396;2023-09-19T05:51:42;99656.88;;;17.25;100.00
13422;BME280;6782;55.904;13.396;2023-09-19T05:54:29;99658.28;;;17.30;100.00
13422;BME280;6782;55.904;13.396;2023-09-19T05:57:16;99652.97;;;17.30;100.00
13422;BME280;6782;55.904;13.396;2023-09-19T06:00:06;99641.31;;;17.44;100.00
13422;BME280;6782;55.904;13.396;2023-09-19T06:02:57;99646.81;;;17.55;100.00
13422;BME280;6782;55.904;13.396;2023-09-19T06:05:44;99655.75;;;17.54;100.00
13422;BME280;6782;55.904;13.396;2023-09-19T06:08:35;99652.47;;;17.63;100.00
13422;BME280;6782;55.904;13.396;2023-09-19T06:11:22;99646.06;;;17.66;100.00
13422;BME280;6782;55.904;13.396;2023-09-19T06:14:12;99647.03;;;17.65;100.00
13422;BME280;6782;55.904;13.396;2023-09-19T06:17:01;99637.63;;;17.59;100.00
13422;BME280;6782;55.904;13.396;2023-09-19T06:19:49;99628.34;;;17.77;100.00
13422;BME280;6782;55.904;13.396;2023-09-19T06:22:36;99603.06;;;17.45;100.00
13422;BME280;6782;55.904;13.396;2023-09-19T06:25:24;99609.66;;;17.52;100.00
13422;BME280;6782;55.904;13.396;2023-09-19T06:28:11;99601.88;;;17.49;100.00
13422;BME280;6782;55.904;13.396;2023-09-19T06:30:59;99596.47;;;17.50;100.00
13422;BME280;6782;55.904;13.396;2023-09-19T06:33:48;99604.56;;;17.62;100.00
13422;BME280;6782;55.904;13.396;2023-09-19T06:36:35;99586.44;;;17.54;100.00
13422;BME280;6782;55.904;13.396;2023-09-19T06:39:23;99591.25;;;17.74;100.00
13422;BME280;6782;55.904;13.396;2023-09-19T06:42:11;99574.63;;;17.58;100.00
13422;BME280;6782;55.904;13.396;2023-09-19T06:44:58;99578.97;;;17.84;100.00
13422;BME280;6782;55.904;13.396;2023-09-19T06:47:46;99586.34;;;18.17;100.00
13422;BME280;6782;55.904;13.396;2023-09-19T06:50:37;99572.78;;;18.20;100.00
13422;BME280;6782;55.904;13.396;2023-09-19T06:53:27;99574.38;;;18.23;100.00
13422;BME280;6782;55.904;13.396;2023-09-19T06:56:17;99569.72;;;18.01;100.00
13422;BME280;6782;55.904;13.396;2023-09-19T06:59:05;99567.53;;;17.95;100.00
13422;BME280;6782;55.904;13.396;2023-09-19T07:01:52;99567.88;;;17.65;100.00
13422;BME280;6782;55.904;13.396;2023-09-19T07:04:40;99555.50;;;17.39;100.00
13422;BME280;6782;55.904;13.396;2023-09-19T07:07:29;99556.56;;;17.24;100.00
13422;BME280;6782;55.904;13.396;2023-09-19T07:10:16;99570.63;;;17.26;100.00
13422;BME280;6782;55.904;13.396;2023-09-19T07:13:04;99576.09;;;17.12;100.00
13422;BME280;6782;55.904;13.396;2023-09-19T07:15:54;99568.69;;;16.90;100.00
13422;BME280;6782;55.904;13.396;2023-09-19T07:18:42;99579.13;;;16.93;100.00
13422;BME280;6782;55.904;13.396;2023-09-19T07:21:31;99592.38;;;16.95;100.00
13422;BME280;6782;55.904;13.396;2023-09-19T07:24:23;99593.88;;;17.11;100.00
13422;BME280;6782;55.904;13.396;2023-09-19T07:27:12;99579.41;;;17.28;100.00
13422;BME280;6782;55.904;13.396;2023-09-19T07:29:59;99587.06;;;17.45;100.00
13422;BME280;6782;55.904;13.396;2023-09-19T07:32:47;99571.06;;;17.45;100.00
13422;BME280;6782;55.904;13.396;2023-09-19T07:35:34;99571.09;;;17.58;100.00
13422;BME280;6782;55.904;13.396;2023-09-19T07:38:21;99564.47;;;17.63;100.00
13422;BME280;6782;55.904;13.396;2023-09-19T07:41:10;99566.41;;;17.61;100.00
13422;BME280;6782;55.904;13.396;2023-09-19T07:43:57;99551.47;;;17.71;100.00
13422;BME280;6782;55.904;13.396;2023-09-19T07:46:44;99543.81;;;17.67;100.00
13422;BME280;6782;55.904;13.396;2023-09-19T07:49:31;99538.44;;;17.79;100.00
13422;BME280;6782;55.904;13.396;2023-09-19T07:52:18;99524.28;;;17.90;100.00
13422;BME280;6782;55.904;13.396;2023-09-19T07:55:08;99515.59;;;17.75;100.00
13422;BME280;6782;55.904;13.396;2023-09-19T07:57:58;99501.47;;;17.37;100.00
13422;BME280;6782;55.904;13.396;2023-09-19T08:00:45;99507.75;;;17.36;100.00
13422;BME280;6782;55.904;13.396;2023-09-19T08:03:33;99500.75;;;17.10;100.00
13422;BME280;6782;55.904;13.396;2023-09-19T08:06:20;99502.34;;;17.00;100.00
13422;BME280;6782;55.904;13.396;2023-09-19T08:09:07;99522.16;;;17.21;100.00
13422;BME280;6782;55.904;13.396;2023-09-19T08:11:56;99523.53;;;17.39;100.00
13422;BME280;6782;55.904;13.396;2023-09-19T08:14:45;99521.63;;;17.66;100.00
13422;BME280;6782;55.904;13.396;2023-09-19T08:17:34;99522.31;;;17.81;100.00
13422;BME280;6782;55.904;13.396;2023-09-19T08:20:21;99517.31;;;17.76;100.00
13422;BME280;6782;55.904;13.396;2023-09-19T08:23:08;99517.31;;;17.76;100.00
13422;BME280;6782;55.904;13.396;2023-09-19T08:25:56;99517.53;;;17.73;100.00
13422;BME280;6782;55.904;13.396;2023-09-19T08:28:45;99507.09;;;17.70;100.00
13422;BME280;6782;55.904;13.396;2023-09-19T08:31:35;99498.00;;;18.09;100.00
13422;BME280;6782;55.904;13.396;2023-09-19T08:34:23;99505.19;;;18.20;100.00
13422;BME280;6782;55.904;13.396;2023-09-19T08:37:11;99515.19;;;18.29;100.00
13422;BME280;6782;55.904;13.396;2023-09-19T08:39:58;99512.91;;;18.11;100.00
13422;BME280;6782;55.904;13.396;2023-09-19T08:42:49;99505.09;;;17.97;100.00
13422;BME280;6782;55.904;13.396;2023-09-19T08:45:36;99513.63;;;18.02;100.00
13422;BME280;6782;55.904;13.396;2023-09-19T08:48:27;99513.84;;;17.99;100.00
13422;BME280;6782;55.904;13.396;2023-09-19T08:51:18;99502.78;;;17.80;100.00
13422;BME280;6782;55.904;13.396;2023-09-19T08:54:08;99510.97;;;18.13;100.00
13422;BME280;6782;55.904;13.396;2023-09-19T08:57:00;99529.84;;;18.47;100.00
13422;BME280;6782;55.904;13.396;2023-09-19T08:59:51;99519.97;;;18.60;100.00
13422;BME280;6782;55.904;13.396;2023-09-19T09:02:40;99521.41;;;18.53;100.00
13422;BME280;6782;55.904;13.396;2023-09-19T09:05:31;99522.16;;;18.42;100.00
13422;BME280;6782;55.904;13.396;2023-09-19T09:08:20;99507.66;;;18.23;100.00
13422;BME280;6782;55.904;13.396;2023-09-19T09:11:08;99514.19;;;17.82;100.00
13422;BME280;6782;55.904;13.396;2023-09-19T09:13:56;99537.25;;;17.83;100.00
13422;BME280;6782;55.904;13.396;2023-09-19T09:16:43;99553.59;;;17.41;100.00
13422;BME280;6782;55.904;13.396;2023-09-19T09:19:31;99570.22;;;17.07;100.00
13422;BME280;6782;55.904;13.396;2023-09-19T09:22:20;99595.03;;;16.95;100.00
13422;BME280;6782;55.904;13.396;2023-09-19T09:25:08;99603.16;;;16.66;100.00
13422;BME280;6782;55.904;13.396;2023-09-19T09:28:04;99591.97;;;16.47;100.00
13422;BME280;6782;55.904;13.396;2023-09-19T09:30:52;99580.81;;;16.69;100.00
13422;BME280;6782;55.904;13.396;2023-09-19T09:33:39;99589.34;;;16.74;100.00
13422;BME280;6782;55.904;13.396;2023-09-19T09:36:36;99595.75;;;16.84;100.00
13422;BME280;6782;55.904;13.396;2023-09-19T09:39:31;99601.78;;;17.13;100.00
13422;BME280;6782;55.904;13.396;2023-09-19T09:42:30;99580.84;;;16.94;100.00
13422;BME280;6782;55.904;13.396;2023-09-19T09:45:20;99586.81;;;16.98;100.00
13422;BME280;6782;55.904;13.396;2023-09-19T09:48:14;99575.03;;;16.62;100.00
13422;BME280;6782;55.904;13.396;2023-09-19T09:51:00;99576.94;;;16.60;100.00
13422;BME280;6782;55.904;13.396;2023-09-19T09:53:49;99578.72;;;16.86;100.00
13422;BME280;6782;55.904;13.396;2023-09-19T09:56:52;99593.38;;;16.79;100.00
13422;BME280;6782;55.904;13.396;2023-09-19T09:59:44;99600.28;;;16.69;100.00
13422;BME280;6782;55.904;13.396;2023-09-19T10:02:35;99611.31;;;17.03;100.00
13422;BME280;6782;55.904;13.396;2023-09-19T10:05:25;99606.84;;;17.03;100.00
13422;BME280;6782;55.904;13.396;2023-09-19T10:08:26;99608.78;;;17.14;100.00
13422;BME280;6782;55.904;13.396;2023-09-19T10:11:16;99609.88;;;17.24;100.00
13422;BME280;6782;55.904;13.396;2023-09-19T10:14:07;99615.31;;;17.35;100.00
13422;BME280;6782;55.904;13.396;2023-09-19T10:16:56;99612.44;;;17.38;100.00
13422;BME280;6782;55.904;13.396;2023-09-19T10:19:55;99598.81;;;17.30;100.00
13422;BME280;6782;55.904;13.396;2023-09-19T10:22:45;99609.88;;;17.24;100.00
13422;BME280;6782;55.904;13.396;2023-09-19T10:25:43;99625.69;;;17.65;100.00
13422;BME280;6782;55.904;13.396;2023-09-19T10:28:33;99615.66;;;17.68;100.00
13422;BME280;6782;55.904;13.396;2023-09-19T10:31:24;99628.53;;;17.99;100.00
13422;BME280;6782;55.904;13.396;2023-09-19T10:34:14;99618.53;;;18.27;100.00
13422;BME280;6782;55.904;13.396;2023-09-19T10:37:02;99631.78;;;18.64;100.00
13422;BME280;6782;55.904;13.396;2023-09-19T10:39:52;99605.94;;;18.29;100.00
13422;BME280;6782;55.904;13.396;2023-09-19T10:42:42;99625.13;;;18.70;100.00
13422;BME280;6782;55.904;13.396;2023-09-19T10:45:33;99617.41;;;18.54;100.00
13422;BME280;6782;55.904;13.396;2023-09-19T10:48:22;99621.81;;;18.90;100.00
13422;BME280;6782;55.904;13.396;2023-09-19T10:51:13;99614.34;;;19.06;100.00
13422;BME280;6782;55.904;13.396;2023-09-19T10:54:06;99634.81;;;19.29;100.00
13422;BME280;6782;55.904;13.396;2023-09-19T10:56:58;99607.53;;;19.02;100.00
13422;BME280;6782;55.904;13.396;2023-09-19T11:00:01;99587.44;;;18.86;100.00
13422;BME280;6782;55.904;13.396;2023-09-19T11:03:20;99566.19;;;18.37;100.00
13422;BME280;6782;55.904;13.396;2023-09-19T11:06:12;99558.13;;;18.26;100.00
13422;BME280;6782;55.904;13.396;2023-09-19T11:09:03;99619.34;;;18.76;100.00
13422;BME280;6782;55.904;13.396;2023-09-19T11:12:02;99613.03;;;18.77;100.00
13422;BME280;6782;55.904;13.396;2023-09-19T11:14:50;99596.53;;;18.59;100.00
13422;BME280;6782;55.904;13.396;2023-09-19T11:17:39;99576.09;;;18.47;100.00
13422;BME280;6782;55.904;13.396;2023-09-19T11:20:27;99599.63;;;18.66;100.00
13422;BME280;6782;55.904;13.396;2023-09-19T11:23:28;99577.25;;;18.56;100.00
13422;BME280;6782;55.904;13.396;2023-09-19T11:26:40;99611.41;;;18.63;100.00
13422;BME280;6782;55.904;13.396;2023-09-19T11:29:30;99596.31;;;18.26;100.00
13422;BME280;6782;55.904;13.396;2023-09-19T11:36:02;99655.53;;;18.07;100.00
13422;BME280;6782;55.904;13.396;2023-09-19T11:39:01;99661.81;;;18.06;100.00
13422;BME280;6782;55.904;13.396;2023-09-19T11:41:54;99716.63;;;18.61;100.00
13422;BME280;6782;55.904;13.396;2023-09-19T11:44:42;99701.47;;;18.61;100.00
13422;BME280;6782;55.904;13.396;2023-09-19T11:47:30;99637.56;;;18.22;100.00
13422;BME280;6782;55.904;13.396;2023-09-19T11:50:19;99617.00;;;17.99;100.00
13422;BME280;6782;55.904;13.396;2023-09-19T11:53:07;99611.50;;;17.89;100.00
13422;BME280;6782;55.904;13.396;2023-09-19T11:55:58;99620.84;;;18.07;100.00
13422;BME280;6782;55.904;13.396;2023-09-19T11:58:48;99651.03;;;18.57;100.00
13422;BME280;6782;55.904;13.396;2023-09-19T12:01:43;99648.19;;;18.47;100.00
13422;BME280;6782;55.904;13.396;2023-09-19T12:04:44;99654.16;;;18.51;100.00
13422;BME280;6782;55.904;13.396;2023-09-19T12:07:42;99698.16;;;18.45;100.00
13422;BME280;6782;55.904;13.396;2023-09-19T12:10:30;99696.69;;;18.54;100.00
13422;BME280;6782;55.904;13.396;2023-09-19T12:13:19;99692.94;;;18.56;100.00
13422;BME280;6782;55.904;13.396;2023-09-19T12:16:11;99683.38;;;18.65;100.00
13422;BME280;6782;55.904;13.396;2023-09-19T12:19:17;99677.47;;;18.96;100.00
13422;BME280;6782;55.904;13.396;2023-09-19T12:22:07;99623.31;;;18.47;100.00
13422;BME280;6782;55.904;13.396;2023-09-19T12:25:05;99607.44;;;18.33;100.00
13422;BME280;6782;55.904;13.396;2023-09-19T12:27:54;99647.34;;;18.34;100.00
13422;BME280;6782;55.904;13.396;2023-09-19T12:30:43;99631.31;;;17.98;100.00
13422;BME280;6782;55.904;13.396;2023-09-19T12:33:31;99677.72;;;18.08;100.00
13422;BME280;6782;55.904;13.396;2023-09-19T12:36:20;99684.56;;;17.99;100.00
13422;BME280;6782;55.904;13.396;2023-09-19T12:39:11;99710.59;;;18.08;100.00
13422;BME280;6782;55.904;13.396;2023-09-19T12:41:59;99722.09;;;18.22;100.00
13422;BME280;6782;55.904;13.396;2023-09-19T12:44:51;99720.31;;;18.22;100.00
13422;BME280;6782;55.904;13.396;2023-09-19T12:48:17;99732.16;;;18.31;100.00
13422;BME280;6782;55.904;13.396;2023-09-19T12:51:06;99707.81;;;18.23;100.00
13422;BME280;6782;55.904;13.396;2023-09-19T12:53:57;99712.78;;;18.40;100.00
13422;BME280;6782;55.904;13.396;2023-09-19T12:56:45;99706.50;;;18.53;100.00
13422;BME280;6782;55.904;13.396;2023-09-19T12:59:34;99683.78;;;18.23;100.00
13422;BME280;6782;55.904;13.396;2023-09-19T13:02:23;99663.53;;;18.07;100.00
13422;BME280;6782;55.904;13.396;2023-09-19T13:05:13;99671.53;;;18.07;100.00
13422;BME280;6782;55.904;13.396;2023-09-19T13:08:17;99683.91;;;18.08;100.00
13422;BME280;6782;55.904;13.396;2023-09-19T13:11:08;99698.94;;;18.22;100.00
13422;BME280;6782;55.904;13.396;2023-09-19T13:14:14;99685.16;;;18.15;100.00
13422;BME280;6782;55.904;13.396;2023-09-19T13:17:03;99677.06;;;18.17;100.00
13422;BME280;6782;55.904;13.396;2023-09-19T13:19:53;99661.06;;;18.17;100.00
13422;BME280;6782;55.904;13.396;2023-09-19T13:22:44;99643.13;;;18.19;100.00
13422;BME280;6782;55.904;13.396;2023-09-19T13:25:35;99600.88;;;18.00;100.00
13422;BME280;6782;55.904;13.396;2023-09-19T13:28:22;99620.75;;;17.96;100.00
13422;BME280;6782;55.904;13.396;2023-09-19T13:31:10;99593.69;;;17.77;100.00
13422;BME280;6782;55.904;13.396;2023-09-19T13:33:57;99648.50;;;17.94;100.00
13422;BME280;6782;55.904;13.396;2023-09-19T13:36:45;99663.25;;;17.74;100.00
13422;BME280;6782;55.904;13.396;2023-09-19T13:39:35;99702.94;;;17.66;100.00
13422;BME280;6782;55.904;13.396;2023-09-19T13:42:24;99747.47;;;17.64;100.00
13422;BME280;6782;55.904;13.396;2023-09-19T13:45:15;99748.81;;;17.44;100.00
13422;BME280;6782;55.904;13.396;2023-09-19T13:48:04;99755.19;;;17.56;100.00
13422;BME280;6782;55.904;13.396;2023-09-19T13:50:52;99741.88;;;17.42;100.00
13422;BME280;6782;55.904;13.396;2023-09-19T13:53:39;99745.03;;;17.22;100.00
13422;BME280;6782;55.904;13.396;2023-09-19T13:56:29;99738.59;;;17.12;100.00
13422;BME280;6782;55.904;13.396;2023-09-19T13:59:17;99721.22;;;16.51;100.00
13422;BME280;6782;55.904;13.396;2023-09-19T14:02:05;99718.41;;;16.40;100.00
13422;BME280;6782;55.904;13.396;2023-09-19T14:04:52;99704.56;;;16.07;100.00
13422;BME280;6782;55.904;13.396;2023-09-19T14:07:40;99715.22;;;16.07;100.00
13422;BME280;6782;55.904;13.396;2023-09-19T14:10:29;99723.34;;;16.18;100.00
13422;BME280;6782;55.904;13.396;2023-09-19T14:13:26;99719.47;;;16.23;100.00
13422;BME280;6782;55.904;13.396;2023-09-19T14:16:18;99721.38;;;16.36;100.00
13422;BME280;6782;55.904;13.396;2023-09-19T14:19:08;99736.06;;;16.41;100.00
13422;BME280;6782;55.904;13.396;2023-09-19T14:21:55;99754.53;;;16.58;100.00
13422;BME280;6782;55.904;13.396;2023-09-19T14:24:43;99753.00;;;16.68;100.00
13422;BME280;6782;55.904;13.396;2023-09-19T14:27:48;99759.31;;;16.80;100.00
13422;BME280;6782;55.904;13.396;2023-09-19T14:30:52;99764.34;;;17.25;100.00
13422;BME280;6782;55.904;13.396;2023-09-19T14:33:57;99755.31;;;17.14;100.00
13422;BME280;6782;55.904;13.396;2023-09-19T14:36:50;99747.84;;;17.33;100.00
13422;BME280;6782;55.904;13.396;2023-09-19T14:39:42;99727.41;;;16.92;100.00
13422;BME280;6782;55.904;13.396;2023-09-19T14:42:39;99729.53;;;16.87;100.00
13422;BME280;6782;55.904;13.396;2023-09-19T14:45:28;99733.75;;;16.77;100.00
13422;BME280;6782;55.904;13.396;2023-09-19T14:48:42;99733.38;;;16.69;100.00
13422;BME280;6782;55.904;13.396;2023-09-19T14:51:30;99719.50;;;16.64;100.00